createdAt,value
2019-04-13T00:16:04.709Z,99.90
2019-04-13T00:22:26.238Z,99.90
2019-04-13T00:28:45.673Z,99.90
2019-04-13T01:17:22.209Z,99.30
2019-04-13T01:19:52.463Z,99.40
2019-04-13T01:22:22.413Z,99.20
2019-04-13T01:24:52.594Z,99.00
2019-04-13T01:27:22.518Z,98.90
2019-04-13T01:43:54.542Z,99.70
2019-04-13T01:46:24.445Z,99.60
2019-04-13T02:36:22.767Z,99.90
2019-04-13T02:56:48.231Z,99.90
2019-04-13T03:03:09.172Z,99.90
2019-04-13T03:09:42.471Z,99.90
2019-04-13T03:12:12.421Z,99.90
2019-04-13T03:14:42.414Z,99.90
2019-04-13T03:17:27.939Z,99.90
2019-04-13T03:31:16.504Z,99.90
2019-04-13T03:33:46.586Z,99.90
2019-04-13T04:04:27.324Z,99.90
2019-04-13T04:21:47.877Z,99.90
2019-04-13T04:31:37.398Z,99.90
2019-04-13T04:34:07.336Z,99.90
2019-04-13T04:53:41.633Z,99.90
2019-04-13T05:10:52.107Z,99.90
2019-04-13T05:38:11.606Z,99.90
2019-04-13T06:02:53.989Z,99.90
2019-04-13T06:09:13.798Z,99.90
2019-04-13T06:11:45.529Z,99.90
2019-04-13T06:14:15.940Z,99.90
2019-04-13T06:20:37.451Z,99.90
2019-04-13T06:23:07.329Z,99.90
2019-04-13T06:25:37.244Z,99.90
2019-04-13T06:32:15.818Z,99.90
2019-04-13T06:51:42.356Z,99.90
2019-04-13T06:54:12.501Z,99.90
2019-04-13T06:56:42.432Z,99.90
2019-04-13T06:59:12.304Z,99.90
2019-04-13T07:05:33.350Z,99.90
2019-04-13T07:08:16.942Z,99.90
2019-04-13T07:11:05.894Z,99.90
2019-04-13T07:13:44.043Z,99.90
2019-04-13T07:16:43.017Z,99.90
2019-04-13T07:19:10.691Z,99.90
2019-04-13T07:21:40.919Z,99.90
2019-04-13T07:24:10.824Z,99.90
2019-04-13T07:26:40.722Z,99.90
2019-04-13T07:29:10.682Z,99.90
2019-04-13T07:31:41.116Z,99.90
2019-04-13T07:37:55.582Z,99.90
2019-04-13T07:47:18.215Z,99.90
2019-04-13T07:53:51.447Z,99.90
2019-04-13T08:10:35.078Z,99.90
2019-04-13T08:13:05.811Z,99.90
2019-04-13T08:29:18.782Z,99.90
2019-04-13T08:35:42.533Z,99.90
2019-04-13T08:38:13.433Z,99.90
2019-04-13T08:44:36.658Z,99.90
2019-04-13T09:30:40.154Z,99.90
2019-04-13T09:43:23.675Z,99.70
2019-04-13T10:15:49.329Z,98.40
2019-04-13T10:18:26.885Z,98.40
2019-04-13T10:32:38.796Z,99.80
2019-04-13T10:35:09.013Z,99.90
2019-04-13T10:52:23.801Z,98.10
2019-04-13T10:54:53.902Z,97.40
2019-04-13T10:57:23.799Z,96.30
2019-04-13T10:59:53.969Z,95.70
2019-04-13T11:02:24.205Z,94.40
2019-04-13T11:04:54.133Z,94.20
2019-04-13T11:07:24.031Z,95.10
2019-04-13T11:09:53.993Z,95.00
2019-04-13T11:16:18.224Z,95.00
2019-04-13T11:18:46.275Z,94.60
2019-04-13T11:21:17.096Z,94.90
2019-04-13T11:27:39.169Z,95.10
2019-04-13T11:40:10.916Z,99.90
2019-04-13T11:49:12.155Z,99.90
2019-04-13T11:55:28.544Z,99.90
2019-04-13T11:57:58.424Z,99.90
2019-04-13T12:00:59.231Z,99.90
2019-04-13T12:03:55.920Z,99.90
2019-04-13T12:06:43.235Z,99.90
2019-04-13T12:25:55.169Z,99.90
2019-04-13T12:32:24.104Z,99.90
2019-04-13T12:34:54.355Z,99.90
2019-04-13T12:58:37.709Z,99.90
2019-04-13T13:07:30.470Z,99.90
2019-04-13T13:10:00.994Z,99.90
2019-04-13T13:12:30.885Z,99.90
2019-04-13T13:15:01.538Z,99.90
2019-04-13T13:17:31.438Z,99.90
2019-04-13T13:20:01.472Z,99.90
2019-04-13T13:22:31.364Z,99.90
2019-04-13T13:25:02.087Z,99.90
2019-04-13T13:27:32.302Z,99.90
2019-04-13T13:44:19.366Z,99.90
2019-04-13T13:46:51.369Z,99.90
2019-04-13T13:49:20.900Z,99.90
2019-04-13T13:51:56.254Z,99.90
2019-04-13T13:54:22.667Z,99.90
2019-04-13T13:56:52.600Z,99.90
2019-04-13T13:59:22.515Z,99.90
2019-04-13T14:01:55.633Z,99.90
2019-04-13T14:04:25.532Z,99.90
2019-04-13T14:06:55.411Z,99.90
2019-04-13T14:09:28.127Z,99.90
2019-04-13T14:26:12.678Z,99.90
2019-04-13T14:35:24.645Z,99.90
2019-04-13T14:37:55.447Z,99.90
2019-04-13T14:40:25.751Z,99.90
2019-04-13T14:42:55.931Z,99.90
2019-04-13T14:45:27.274Z,99.90
2019-04-13T14:47:57.785Z,99.90
2019-04-13T14:54:20.090Z,99.90
2019-04-13T14:56:50.284Z,99.90
2019-04-13T15:10:46.719Z,99.90
2019-04-13T15:17:03.772Z,99.90
2019-04-13T15:19:40.935Z,99.90
2019-04-13T15:28:58.134Z,99.90
2019-04-13T15:31:33.017Z,99.90
2019-04-13T15:34:03.670Z,99.90
2019-04-13T15:43:50.578Z,99.90
2019-04-13T15:46:24.668Z,99.90
2019-04-13T15:48:51.627Z,99.90
2019-04-13T15:51:22.305Z,99.90
2019-04-13T15:53:52.296Z,99.90
2019-04-13T15:56:23.706Z,99.90
2019-04-13T15:58:53.793Z,99.90
2019-04-13T16:01:23.983Z,99.90
2019-04-13T16:03:55.149Z,99.90
2019-04-13T16:10:06.850Z,99.90
2019-04-13T16:12:42.822Z,99.90
2019-04-13T16:15:14.220Z,99.90
2019-04-13T16:17:44.527Z,99.90
2019-04-13T16:20:15.898Z,99.90
2019-04-13T16:22:47.296Z,99.90
2019-04-13T16:25:18.469Z,99.90
2019-04-13T16:28:00.421Z,99.90
2019-04-13T16:31:01.668Z,99.90
2019-04-13T16:33:41.368Z,99.90
2019-04-13T16:36:16.668Z,99.90
2019-04-13T16:38:54.648Z,99.90
2019-04-13T16:45:39.618Z,99.90
2019-04-13T16:48:33.771Z,99.90
2019-04-13T16:51:23.482Z,99.90
2019-04-13T16:54:03.542Z,99.90
2019-04-13T16:57:06.531Z,99.90
2019-04-13T17:00:14.419Z,99.90
2019-04-13T17:03:01.209Z,99.90
2019-04-13T17:05:33.396Z,99.90
2019-04-13T17:08:03.489Z,99.90
2019-04-13T17:10:33.582Z,99.90
2019-04-13T17:13:05.432Z,99.90
2019-04-13T17:15:35.613Z,99.90
2019-04-13T17:18:10.049Z,99.90
2019-04-13T17:21:06.216Z,99.90
2019-04-13T17:23:54.234Z,99.90
2019-04-13T17:26:40.321Z,99.90
2019-04-13T17:29:31.725Z,99.90
2019-04-13T17:46:11.384Z,99.90
2019-04-13T17:55:57.474Z,99.90
2019-04-13T17:58:58.210Z,99.90
2019-04-13T18:01:46.065Z,99.90
2019-04-13T18:04:39.300Z,99.90
2019-04-13T18:07:34.381Z,99.90
2019-04-13T18:10:23.251Z,99.90
2019-04-13T18:13:15.868Z,99.90
2019-04-13T18:19:37.904Z,99.90
2019-04-13T18:22:08.056Z,99.90
2019-04-13T18:24:38.580Z,99.90
2019-04-13T18:27:08.899Z,99.90
2019-04-13T18:29:38.964Z,99.90
2019-04-13T18:43:33.006Z,99.90
2019-04-13T18:46:04.042Z,99.90
2019-04-13T18:48:36.158Z,99.90
2019-04-13T18:51:06.570Z,99.90
2019-04-13T18:53:40.101Z,99.90
2019-04-13T18:56:08.422Z,99.90
2019-04-13T18:58:39.503Z,99.90
2019-04-13T19:01:09.590Z,99.90
2019-04-13T19:03:39.545Z,99.90
2019-04-13T19:06:09.591Z,99.90
2019-04-13T19:08:40.404Z,99.90
2019-04-13T19:11:10.381Z,99.90
2019-04-13T19:13:40.348Z,99.90
2019-04-13T19:16:10.759Z,99.90
2019-04-13T19:18:40.821Z,99.90
2019-04-13T19:21:10.765Z,99.90
2019-04-13T19:23:40.845Z,99.90
2019-04-13T19:26:10.718Z,99.90
2019-04-13T19:28:41.354Z,99.90
2019-04-13T19:31:11.622Z,99.90
2019-04-13T19:33:41.602Z,99.90
2019-04-13T19:36:11.698Z,99.90
2019-04-13T19:38:41.651Z,99.90
2019-04-13T19:41:11.887Z,99.90
2019-04-13T19:43:41.829Z,99.90
2019-04-13T19:46:11.893Z,99.90
2019-04-13T19:48:41.905Z,99.90
2019-04-13T19:55:03.029Z,99.90
2019-04-13T19:57:33.052Z,99.90
2019-04-13T20:00:03.681Z,99.90
2019-04-13T20:02:33.863Z,99.90
2019-04-13T20:05:03.827Z,99.90
2019-04-13T20:07:33.744Z,99.90
2019-04-13T20:10:04.715Z,99.90
2019-04-13T20:12:34.747Z,99.90
2019-04-13T20:15:05.444Z,99.90
2019-04-13T20:17:35.619Z,99.90
2019-04-13T20:20:06.587Z,99.90
2019-04-13T20:22:36.811Z,99.90
2019-04-13T20:28:52.519Z,99.90
2019-04-13T20:31:22.602Z,99.90
2019-04-13T20:33:52.627Z,99.90
2019-04-13T20:36:24.219Z,99.90
2019-04-13T20:38:54.482Z,99.90
2019-04-13T20:41:38.616Z,99.90
2019-04-13T20:44:02.833Z,99.90
2019-04-13T20:46:28.428Z,99.90
2019-04-13T22:23:52.062Z,99.90
2019-04-13T22:26:22.042Z,99.90
2019-04-13T22:29:00.649Z,99.90
2019-04-13T22:45:45.369Z,99.90
2019-04-13T22:48:33.293Z,99.90
2019-04-13T22:51:12.403Z,99.90
2019-04-13T22:57:37.017Z,99.90
2019-04-13T23:00:19.423Z,99.90
2019-04-13T23:02:51.892Z,99.90
2019-04-13T23:09:13.364Z,99.90
2019-04-13T23:15:33.089Z,99.90
2019-04-13T23:46:11.491Z,99.90
2019-04-13T23:52:13.975Z,99.90
